createdAt,value
2023-03-06T00:02:41.064Z,17.88
2023-03-06T00:05:43.218Z,17.84
2023-03-06T00:08:45.929Z,17.84
2023-03-06T00:11:47.982Z,17.82
2023-03-06T00:14:51.287Z,17.84
2023-03-06T00:17:54.362Z,17.81
2023-03-06T00:20:58.231Z,17.79
2023-03-06T00:24:02.197Z,17.79
2023-03-06T00:27:05.154Z,17.74
2023-03-06T00:30:11.030Z,17.71
2023-03-06T00:33:13.467Z,17.65
2023-03-06T00:36:15.771Z,17.64
2023-03-06T00:39:18.690Z,17.58
2023-03-06T00:42:21.474Z,17.53
2023-03-06T00:45:23.919Z,17.57
2023-03-06T00:48:26.294Z,17.57
2023-03-06T00:51:28.778Z,17.57
2023-03-06T00:54:30.754Z,17.51
2023-03-06T00:57:33.376Z,17.57
2023-03-06T01:00:36.025Z,17.55
2023-03-06T01:03:38.417Z,17.54
2023-03-06T01:06:40.494Z,17.45
2023-03-06T01:09:44.824Z,17.43
2023-03-06T01:12:47.300Z,17.41
2023-03-06T01:15:50.035Z,17.38
2023-03-06T01:18:52.318Z,17.38
2023-03-06T01:21:54.896Z,17.35
2023-03-06T01:24:57.192Z,17.35
2023-03-06T01:28:01.483Z,17.35
2023-03-06T01:31:06.211Z,17.35
2023-03-06T01:34:08.593Z,17.37
2023-03-06T01:37:10.653Z,17.38
2023-03-06T01:40:13.820Z,17.37
2023-03-06T01:43:26.427Z,17.34
2023-03-06T01:46:42.538Z,17.31
2023-03-06T01:49:44.569Z,17.28
2023-03-06T01:52:52.597Z,17.30
2023-03-06T01:55:55.924Z,17.28
2023-03-06T01:59:00.317Z,17.34
2023-03-06T02:02:05.342Z,17.33
2023-03-06T02:05:08.441Z,17.34
2023-03-06T02:08:15.493Z,17.34
2023-03-06T02:11:22.058Z,17.31
2023-03-06T02:14:24.812Z,17.34
2023-03-06T02:17:27.882Z,17.28
2023-03-06T02:20:43.911Z,17.26
2023-03-06T02:24:07.913Z,17.26
2023-03-06T02:27:15.153Z,17.31
2023-03-06T02:30:19.004Z,17.26
2023-03-06T02:33:24.999Z,17.28
2023-03-06T02:36:28.223Z,17.26
2023-03-06T02:39:34.201Z,17.23
2023-03-06T02:42:38.276Z,17.24
2023-03-06T02:45:45.648Z,17.19
2023-03-06T02:48:48.429Z,17.19
2023-03-06T02:51:50.486Z,17.21
2023-03-06T02:54:53.549Z,17.17
2023-03-06T02:57:55.981Z,17.24
2023-03-06T03:00:59.737Z,17.20
2023-03-06T03:04:02.277Z,17.21
2023-03-06T03:07:05.397Z,17.19
2023-03-06T03:10:10.736Z,17.20
2023-03-06T03:13:13.665Z,17.19
2023-03-06T03:16:17.646Z,17.13
2023-03-06T03:19:20.189Z,17.07
2023-03-06T03:22:23.017Z,17.04
2023-03-06T03:25:26.559Z,17.03
2023-03-06T03:28:31.330Z,17.11
2023-03-06T03:31:33.868Z,17.14
2023-03-06T03:34:37.765Z,17.09
2023-03-06T03:37:41.736Z,17.10
2023-03-06T03:40:44.615Z,17.10
2023-03-06T03:43:47.685Z,17.10
2023-03-06T03:46:50.081Z,17.13
2023-03-06T03:49:56.537Z,10.93
2023-03-06T03:53:00.089Z,11.80
2023-03-06T03:56:04.227Z,14.73
2023-03-06T03:59:09.850Z,14.40
2023-03-06T04:02:22.186Z,15.30
2023-03-06T04:05:44.816Z,10.57
2023-03-06T04:08:50.097Z,8.50
2023-03-06T04:11:52.567Z,6.32
2023-03-06T04:14:58.343Z,5.43
2023-03-06T04:18:01.178Z,4.92
2023-03-06T04:21:06.123Z,4.42
2023-03-06T04:24:09.426Z,4.13
2023-03-06T04:27:13.029Z,4.07
2023-03-06T04:30:15.260Z,3.93
2023-03-06T04:33:18.218Z,3.85
2023-03-06T04:36:39.085Z,3.81
2023-03-06T04:39:46.122Z,3.77
2023-03-06T04:42:49.564Z,3.58
2023-03-06T04:45:52.278Z,3.78
2023-03-06T04:48:54.758Z,3.50
2023-03-06T04:51:57.424Z,3.50
2023-03-06T04:55:00.928Z,3.55
2023-03-06T04:58:04.208Z,3.42
2023-03-06T05:01:06.649Z,3.23
2023-03-06T05:04:09.327Z,3.18
2023-03-06T05:07:11.318Z,3.08
2023-03-06T05:10:17.377Z,3.17
2023-03-06T05:13:21.264Z,3.11
2023-03-06T05:16:23.675Z,3.10
2023-03-06T05:19:25.860Z,3.16
2023-03-06T05:22:28.229Z,3.18
2023-03-06T05:25:30.436Z,3.16
2023-03-06T05:28:32.907Z,3.17
2023-03-06T05:31:35.426Z,3.10
2023-03-06T05:34:40.212Z,3.11
2023-03-06T05:37:42.446Z,3.28
2023-03-06T05:40:49.109Z,3.20
2023-03-06T05:43:54.014Z,3.37
2023-03-06T05:46:56.508Z,3.30
2023-03-06T05:49:58.831Z,3.38
2023-03-06T05:53:01.632Z,3.44
2023-03-06T05:56:06.368Z,3.69
2023-03-06T05:59:08.923Z,3.71
2023-03-06T06:02:11.053Z,3.48
2023-03-06T06:05:14.281Z,3.38
2023-03-06T06:08:17.389Z,3.86
2023-03-06T06:11:21.035Z,4.10
2023-03-06T06:14:23.121Z,4.99
2023-03-06T06:17:27.922Z,4.97
2023-03-06T06:20:30.180Z,5.15
2023-03-06T06:23:34.640Z,5.35
2023-03-06T06:26:36.755Z,6.46
2023-03-06T06:29:39.113Z,6.18
2023-03-06T06:32:41.443Z,5.77
2023-03-06T06:35:43.903Z,5.46
2023-03-06T06:38:46.040Z,5.56
2023-03-06T06:42:05.469Z,6.38
2023-03-06T06:45:13.038Z,5.89
2023-03-06T06:48:16.783Z,7.97
2023-03-06T06:51:22.063Z,10.53
2023-03-06T06:54:25.025Z,12.78
2023-03-06T06:57:27.955Z,13.73
2023-03-06T07:00:30.735Z,14.10
2023-03-06T07:03:33.576Z,14.51
2023-03-06T07:06:36.464Z,14.88
2023-03-06T07:09:40.774Z,15.13
2023-03-06T07:12:43.252Z,15.37
2023-03-06T07:15:45.344Z,15.51
2023-03-06T07:18:48.293Z,15.61
2023-03-06T07:21:51.009Z,15.70
2023-03-06T07:24:53.486Z,15.80
2023-03-06T07:27:59.384Z,15.91
2023-03-06T07:31:02.178Z,15.90
2023-03-06T07:34:05.161Z,15.93
2023-03-06T07:37:07.986Z,15.70
2023-03-06T07:40:12.631Z,15.39
2023-03-06T07:43:19.385Z,15.67
2023-03-06T07:46:31.386Z,15.85
2023-03-06T07:49:34.300Z,14.54
2023-03-06T07:52:36.813Z,15.39
2023-03-06T07:55:41.690Z,15.81
2023-03-06T07:58:47.120Z,16.00
2023-03-06T08:01:49.567Z,15.70
2023-03-06T08:04:53.452Z,16.12
2023-03-06T08:07:57.794Z,16.32
2023-03-06T08:10:59.792Z,16.44
2023-03-06T08:14:02.675Z,16.42
2023-03-06T08:17:05.499Z,16.47
2023-03-06T08:20:10.499Z,16.32
2023-03-06T08:23:12.574Z,16.49
2023-03-06T08:26:18.266Z,16.42
2023-03-06T08:29:24.050Z,16.52
2023-03-06T08:32:29.306Z,14.51
2023-03-06T08:35:31.749Z,15.42
2023-03-06T08:38:34.531Z,15.81
2023-03-06T08:41:37.570Z,15.58
2023-03-06T08:44:40.962Z,15.57
2023-03-06T08:47:43.424Z,12.30
2023-03-06T08:50:46.362Z,12.96
2023-03-06T08:53:49.076Z,14.25
2023-03-06T08:56:52.039Z,15.43
2023-03-06T08:59:54.180Z,15.74
2023-03-06T09:02:56.676Z,16.42
2023-03-06T09:05:59.833Z,16.69
2023-03-06T09:09:03.289Z,16.90
2023-03-06T09:12:06.168Z,17.02
2023-03-06T09:15:10.134Z,16.02
2023-03-06T09:18:12.961Z,16.49
2023-03-06T09:21:16.063Z,16.58
2023-03-06T09:24:18.684Z,13.16
2023-03-06T09:27:23.403Z,11.96
2023-03-06T09:30:26.006Z,13.94
2023-03-06T09:33:28.861Z,15.49
2023-03-06T09:36:31.363Z,15.24
2023-03-06T09:39:33.782Z,12.44
2023-03-06T09:42:36.232Z,14.86
2023-03-06T09:45:42.625Z,16.36
2023-03-06T09:48:50.806Z,16.77
2023-03-06T09:52:14.240Z,17.19
2023-03-06T09:55:27.254Z,17.35
2023-03-06T09:58:34.301Z,17.47
2023-03-06T10:01:42.970Z,17.50
2023-03-06T10:04:50.414Z,17.67
2023-03-06T10:08:12.544Z,17.67
2023-03-06T10:11:19.890Z,17.68
2023-03-06T10:14:31.825Z,17.74
2023-03-06T10:17:41.174Z,17.70
2023-03-06T10:21:18.795Z,17.81
2023-03-06T10:24:54.310Z,17.75
2023-03-06T10:28:15.208Z,17.94
2023-03-06T10:31:26.732Z,17.95
2023-03-06T10:34:33.214Z,18.08
2023-03-06T10:37:35.744Z,18.06
2023-03-06T10:40:47.734Z,18.15
2023-03-06T10:44:05.841Z,18.06
2023-03-06T10:47:28.459Z,18.05
2023-03-06T10:50:31.756Z,18.08
2023-03-06T10:53:34.686Z,18.01
2023-03-06T10:56:40.301Z,18.05
2023-03-06T11:00:00.640Z,18.10
2023-03-06T11:03:18.693Z,18.10
2023-03-06T11:06:35.826Z,18.21
2023-03-06T11:09:39.177Z,18.30
2023-03-06T11:12:43.697Z,18.42
2023-03-06T11:15:57.883Z,18.55
2023-03-06T11:19:17.741Z,18.35
2023-03-06T11:22:20.613Z,18.40
2023-03-06T11:25:28.343Z,18.52
2023-03-06T11:28:35.047Z,18.46
2023-03-06T11:31:42.828Z,18.42
2023-03-06T11:34:53.879Z,18.46
2023-03-06T11:38:12.825Z,18.59
2023-03-06T11:41:32.797Z,18.63
2023-03-06T11:45:19.507Z,18.61
2023-03-06T11:48:28.872Z,18.63
2023-03-06T11:51:38.338Z,18.64
2023-03-06T11:54:41.139Z,18.66
2023-03-06T11:58:02.683Z,18.70
2023-03-06T12:01:31.638Z,18.79
2023-03-06T12:04:42.667Z,18.83
2023-03-06T12:07:48.729Z,18.91
2023-03-06T12:10:58.210Z,19.00
2023-03-06T12:14:29.195Z,19.00
2023-03-06T12:17:53.144Z,19.14
2023-03-06T12:21:05.308Z,19.18
2023-03-06T12:24:35.689Z,19.01
2023-03-06T12:27:52.173Z,19.10
2023-03-06T12:30:57.695Z,19.10
2023-03-06T12:34:00.668Z,19.04
2023-03-06T12:37:09.402Z,18.97
2023-03-06T12:40:49.329Z,18.93
2023-03-06T12:44:00.686Z,18.97
2023-03-06T12:47:11.844Z,18.87
2023-03-06T12:50:33.166Z,18.81
2023-03-06T12:53:36.660Z,18.96
2023-03-06T12:56:39.982Z,19.03
2023-03-06T12:59:48.628Z,19.03
2023-03-06T13:03:21.906Z,19.06
2023-03-06T13:06:59.441Z,19.12
2023-03-06T13:10:11.315Z,19.14
2023-03-06T13:13:30.267Z,19.15
2023-03-06T13:16:34.419Z,19.18
2023-03-06T13:19:37.271Z,19.20
2023-03-06T13:22:40.511Z,19.24
2023-03-06T13:25:49.749Z,19.15
2023-03-06T13:28:54.498Z,19.21
2023-03-06T13:32:01.113Z,19.22
2023-03-06T13:35:33.042Z,19.24
2023-03-06T13:38:37.286Z,19.25
2023-03-06T13:41:55.945Z,19.22
2023-03-06T13:45:06.845Z,19.25
2023-03-06T13:48:44.273Z,19.28
2023-03-06T13:51:54.077Z,19.31
2023-03-06T13:55:53.011Z,19.34
2023-03-06T13:59:20.889Z,19.25
2023-03-06T14:03:04.076Z,19.24
2023-03-06T14:06:35.262Z,19.08
2023-03-06T14:09:41.242Z,19.00
2023-03-06T14:12:59.971Z,19.03
2023-03-06T14:16:02.708Z,19.25
2023-03-06T14:19:06.839Z,19.34
2023-03-06T14:22:17.267Z,19.39
2023-03-06T14:25:29.419Z,19.32
2023-03-06T14:28:33.503Z,19.04
2023-03-06T14:31:43.047Z,18.94
2023-03-06T14:34:46.776Z,18.79
2023-03-06T14:37:53.274Z,18.69
2023-03-06T14:40:55.734Z,18.70
2023-03-06T14:44:19.422Z,18.69
2023-03-06T14:47:33.233Z,18.69
2023-03-06T14:50:36.375Z,18.61
2023-03-06T14:53:38.474Z,18.60
2023-03-06T14:56:46.048Z,18.61
2023-03-06T14:59:58.108Z,18.57
2023-03-06T15:03:00.918Z,18.50
2023-03-06T15:06:05.736Z,18.49
2023-03-06T15:09:25.038Z,18.50
2023-03-06T15:12:30.475Z,18.42
2023-03-06T15:15:33.718Z,18.35
2023-03-06T15:18:42.604Z,18.36
2023-03-06T15:21:48.767Z,18.36
2023-03-06T15:24:50.918Z,18.35
2023-03-06T15:28:19.957Z,18.32
2023-03-06T15:31:25.218Z,18.26
2023-03-06T15:34:28.168Z,18.30
2023-03-06T15:37:31.011Z,18.25
2023-03-06T15:40:33.679Z,18.25
2023-03-06T15:43:40.285Z,18.25
2023-03-06T15:46:42.685Z,18.28
2023-03-06T15:49:45.621Z,18.28
2023-03-06T15:52:49.318Z,18.21
2023-03-06T15:55:52.625Z,18.18
2023-03-06T15:58:57.461Z,18.12
2023-03-06T16:02:04.203Z,18.08
2023-03-06T16:05:16.081Z,18.10
2023-03-06T16:08:18.103Z,18.05
2023-03-06T16:11:35.350Z,18.06
2023-03-06T16:14:45.776Z,18.02
2023-03-06T16:17:49.574Z,18.04
2023-03-06T16:20:52.186Z,17.91
2023-03-06T16:23:54.909Z,17.98
2023-03-06T16:27:01.386Z,17.99
2023-03-06T16:30:05.019Z,17.92
2023-03-06T16:33:07.522Z,17.92
2023-03-06T16:36:18.031Z,17.91
2023-03-06T16:39:22.989Z,18.01
2023-03-06T16:42:25.493Z,17.73
2023-03-06T16:45:27.687Z,17.79
2023-03-06T16:48:30.217Z,17.95
2023-03-06T16:51:33.711Z,18.15
2023-03-06T16:54:36.214Z,18.19
2023-03-06T16:57:39.089Z,17.64
2023-03-06T17:00:42.074Z,17.47
2023-03-06T17:03:46.014Z,16.48
2023-03-06T17:06:49.184Z,16.70
2023-03-06T17:09:51.259Z,16.86
2023-03-06T17:13:06.202Z,17.23
2023-03-06T17:16:12.205Z,17.30
2023-03-06T17:19:18.313Z,17.75
2023-03-06T17:22:20.628Z,17.58
2023-03-06T17:25:23.781Z,18.18
2023-03-06T17:28:26.749Z,18.30
2023-03-06T17:31:34.957Z,18.30
2023-03-06T17:34:37.218Z,18.32
2023-03-06T17:37:40.358Z,18.42
2023-03-06T17:40:42.617Z,18.45
2023-03-06T17:43:44.917Z,18.55
2023-03-06T17:46:47.924Z,18.60
2023-03-06T17:49:52.509Z,18.47
2023-03-06T17:53:29.249Z,18.55
2023-03-06T17:56:40.358Z,18.63
2023-03-06T17:59:50.632Z,18.57
2023-03-06T18:03:38.827Z,18.39
2023-03-06T18:06:41.238Z,18.32
2023-03-06T18:09:45.256Z,18.19
2023-03-06T18:12:47.931Z,18.12
2023-03-06T18:15:50.617Z,18.16
2023-03-06T18:18:55.044Z,18.08
2023-03-06T18:21:58.214Z,17.98
2023-03-06T18:25:01.545Z,17.99
2023-03-06T18:28:06.151Z,17.98
2023-03-06T18:31:25.003Z,17.84
2023-03-06T18:34:27.488Z,17.86
2023-03-06T18:37:29.514Z,17.77
2023-03-06T18:40:32.419Z,17.74
2023-03-06T18:43:38.494Z,17.73
2023-03-06T18:46:42.488Z,17.73
2023-03-06T18:49:46.256Z,17.65
2023-03-06T18:52:48.875Z,17.60
2023-03-06T18:55:54.539Z,17.60
2023-03-06T18:59:00.661Z,17.60
2023-03-06T19:02:03.955Z,17.54
2023-03-06T19:05:07.237Z,17.54
2023-03-06T19:08:11.271Z,17.33
2023-03-06T19:11:15.121Z,17.33
2023-03-06T19:14:18.253Z,17.40
2023-03-06T19:17:20.762Z,17.31
2023-03-06T19:20:26.550Z,17.37
2023-03-06T19:23:29.941Z,17.24
2023-03-06T19:26:32.645Z,17.30
2023-03-06T19:29:36.237Z,17.34
2023-03-06T19:32:38.539Z,17.30
2023-03-06T19:35:42.404Z,17.31
2023-03-06T19:38:45.414Z,17.34
2023-03-06T19:41:48.126Z,17.37
2023-03-06T19:44:51.735Z,17.33
2023-03-06T19:47:56.066Z,17.27
2023-03-06T19:51:03.782Z,17.34
2023-03-06T19:54:06.412Z,17.06
2023-03-06T19:57:08.332Z,17.16
2023-03-06T20:00:11.926Z,17.20
2023-03-06T20:03:18.234Z,17.26
2023-03-06T20:06:22.460Z,17.20
2023-03-06T20:09:24.565Z,17.26
2023-03-06T20:12:27.657Z,17.19
2023-03-06T20:15:29.939Z,17.23
2023-03-06T20:18:33.075Z,17.26
2023-03-06T20:21:37.860Z,17.43
2023-03-06T20:24:41.830Z,17.40
2023-03-06T20:27:44.465Z,17.55
2023-03-06T20:30:49.611Z,17.51
2023-03-06T20:33:54.257Z,17.64
2023-03-06T20:36:58.054Z,17.78
2023-03-06T20:40:00.637Z,17.74
2023-03-06T20:43:03.635Z,17.75
2023-03-06T20:46:07.065Z,17.74
2023-03-06T20:49:12.958Z,13.16
2023-03-06T20:52:15.336Z,15.70
2023-03-06T20:55:18.240Z,17.16
2023-03-06T20:58:22.168Z,17.51
2023-03-06T21:01:25.892Z,17.60
2023-03-06T21:04:30.421Z,17.64
2023-03-06T21:07:33.346Z,17.63
2023-03-06T21:10:37.656Z,17.60
2023-03-06T21:13:40.449Z,17.63
2023-03-06T21:16:43.416Z,17.67
2023-03-06T21:19:46.541Z,17.74
2023-03-06T21:22:49.927Z,17.73
2023-03-06T21:25:53.606Z,17.88
2023-03-06T21:29:00.122Z,17.92
2023-03-06T21:32:04.172Z,17.99
2023-03-06T21:35:07.170Z,17.99
2023-03-06T21:38:11.418Z,18.09
2023-03-06T21:41:19.752Z,18.16
2023-03-06T21:44:22.834Z,18.18
2023-03-06T21:47:26.168Z,18.28
2023-03-06T21:50:28.941Z,18.32
2023-03-06T21:53:32.305Z,18.33
2023-03-06T21:56:34.962Z,18.36
2023-03-06T21:59:40.943Z,18.49
2023-03-06T22:02:44.734Z,18.53
2023-03-06T22:05:47.641Z,18.61
2023-03-06T22:08:50.789Z,18.64
2023-03-06T22:11:54.071Z,18.63
2023-03-06T22:14:57.000Z,18.59
2023-03-06T22:17:59.041Z,18.70
2023-03-06T22:21:10.183Z,18.77
2023-03-06T22:24:13.599Z,18.87
2023-03-06T22:27:16.417Z,18.93
2023-03-06T22:30:19.052Z,18.96
2023-03-06T22:33:21.721Z,14.64
2023-03-06T22:36:25.379Z,13.50
2023-03-06T22:39:27.758Z,13.32
2023-03-06T22:42:29.896Z,14.03
2023-03-06T22:45:34.978Z,17.00
2023-03-06T22:48:40.548Z,17.96
2023-03-06T22:51:43.644Z,18.40
2023-03-06T22:54:46.519Z,18.46
2023-03-06T23:02:35.790Z,18.43
2023-03-06T23:05:42.277Z,18.32
2023-03-06T23:08:48.994Z,18.26
2023-03-06T23:11:51.492Z,18.21
2023-03-06T23:15:12.902Z,18.21
2023-03-06T23:18:37.935Z,17.53
2023-03-06T23:21:59.160Z,18.02
2023-03-06T23:25:19.963Z,18.12
2023-03-06T23:28:22.844Z,18.16
2023-03-06T23:31:30.547Z,18.21
2023-03-06T23:34:33.092Z,18.19
2023-03-06T23:37:35.381Z,18.16
2023-03-06T23:40:38.696Z,18.12
2023-03-06T23:43:42.617Z,18.16
2023-03-06T23:46:44.924Z,18.10
2023-03-06T23:49:47.418Z,18.05
2023-03-06T23:52:54.755Z,18.04
2023-03-06T23:55:57.136Z,18.04
2023-03-06T23:58:59.407Z,18.05
